CYMH

Mary's Harbour Airport

Mary's Harbour, Canada
METAR CYMH 200000Z AUTO 27008KT 9SM CLR M16/M20 A2964 RMK SLP038
Observed Flight Rules
Jan-20 @ 00:00 UTC (an hour ago) Visual Flight Rules
Wind Visibility Clouds
270° at 8 knots 9 miles
  • Clear skies
Temperatures Readings
Current -16°C / 3°F
Dewpoint -20°C / -4°F
Humidity 72%
Altimeter 29.64" Hg
Pressure 1003.8 hPa
Elevation 11
METAR CYMH 200000Z AUTO 27008KT 9SM CLR M16/M20 A2964 RMK SLP038
Observed Flight Rules
Jan-20 @ 00:00 UTC
(an hour ago)
VFR
Wind Visibility
270° at 8 knots 9 miles
Clouds
  • Clear skies
Temperature Dewpoint
-16°C / 3°F -20°C / -4°F
Humidity Altimeter Pressure
72% 29.64" Hg 1003.8 hPa